Main page
METAR-TAF:

METAR-TAF

Airports :

N'Djamena, Chad

N'Djamena International Airport

latitude: 12-08N, longitude: 015-02E, elevation: 295 m

Current weather observation

The report was made 58 minutes ago, at 08:00 UTC
Wind 5 kt from the East/Southeast, varying between East and South/Southeast
Temperature 38°C
Humidity 15%
Pressure 1011 hPa
Visibility: 4000 m
widespread dust

METAR: FTTJ 300800Z 12005KT 090V150 4000 DU NSC 38/07 Q1011 NOSIG

Time: 09:58 (08:58 UTC)

Forecast

The report was made 3 hours and 58 minutes ago, at 05:00 UTC
Forecast valid from 30 at 06 UTC to 01 at 12 UTC
Wind 3 kt from variable directions
Visibility: 5000 m
haze
Becoming
from 30 at 07 UTC to 30 at 09 UTC
Wind 10 kt from the East
Visibility 10 km or more
no clouds below 1500 m and no cumulonimbus
Temporary
from 30 at 15 UTC to 30 at 20 UTC
Wind 6 kt from the North/Northeast
Visibility: 4000 m
haze

TAF: FTTJ 300500Z 3006/0112 VRB03KT 5000 HZ NSC BECMG 3007/3009 08010KT CAVOK TEMPO 3015/3020 03006KT 4000 HZ

Weather observations and forecasts of more than 4000 airports (METAR and TAF reports).

The available stations are represented by yellow and red dots on the map.

Hover mouse over dot to see the name of the station.

Then click to see weather observations and forecasts.

To change the map : click on the green buttons with a black cross to zoom in, on the green button with a dash to zoom out, or on the green arrows for adjacent maps.


METAR-TAF: